sensor_id;sensor_type;location;lat;lon;timestamp;temperature;humidity
16491;DHT22;8356;51.214;3.270;2022-08-19T00:00:10;563.40;2432.00
16491;DHT22;8356;51.214;3.270;2022-08-19T00:02:36;563.40;2432.00
16491;DHT22;8356;51.214;3.270;2022-08-19T00:05:02;563.30;2432.00
16491;DHT22;8356;51.214;3.270;2022-08-19T00:07:28;563.20;2432.00
16491;DHT22;8356;51.214;3.270;2022-08-19T00:09:54;538.50;2406.40
16491;DHT22;8356;51.214;3.270;2022-08-19T00:12:20;538.40;2406.40
16491;DHT22;8356;51.214;3.270;2022-08-19T00:14:45;538.30;2406.40
16491;DHT22;8356;51.214;3.270;2022-08-19T00:17:11;538.20;2406.40
16491;DHT22;8356;51.214;3.270;2022-08-19T00:19:38;538.30;2406.40
16491;DHT22;8356;51.214;3.270;2022-08-19T00:22:04;538.30;2406.40
16491;DHT22;8356;51.214;3.270;2022-08-19T00:24:31;538.30;2406.40
16491;DHT22;8356;51.214;3.270;2022-08-19T00:26:57;538.30;2406.40
16491;DHT22;8356;51.214;3.270;2022-08-19T00:29:24;538.20;2406.40
16491;DHT22;8356;51.214;3.270;2022-08-19T00:31:51;538.20;2406.40
16491;DHT22;8356;51.214;3.270;2022-08-19T00:34:23;538.20;2406.40
16491;DHT22;8356;51.214;3.270;2022-08-19T00:36:53;538.10;2406.40
16491;DHT22;8356;51.214;3.270;2022-08-19T00:39:19;538.20;2406.40
16491;DHT22;8356;51.214;3.270;2022-08-19T00:41:46;538.10;2406.40
16491;DHT22;8356;51.214;3.270;2022-08-19T00:44:20;538.10;2406.40
16491;DHT22;8356;51.214;3.270;2022-08-19T00:46:48;538.10;2406.40
16491;DHT22;8356;51.214;3.270;2022-08-19T00:49:15;538.10;2406.40
16491;DHT22;8356;51.214;3.270;2022-08-19T00:51:44;538.30;2406.40
16491;DHT22;8356;51.214;3.270;2022-08-19T00:54:10;538.10;2406.40
16491;DHT22;8356;51.214;3.270;2022-08-19T00:56:36;538.10;2406.40
16491;DHT22;8356;51.214;3.270;2022-08-19T00:59:03;538.20;2406.40
16491;DHT22;8356;51.214;3.270;2022-08-19T01:01:38;538.00;2406.40
16491;DHT22;8356;51.214;3.270;2022-08-19T01:04:04;537.90;2406.40
16491;DHT22;8356;51.214;3.270;2022-08-19T01:06:30;537.90;2406.40
16491;DHT22;8356;51.214;3.270;2022-08-19T01:08:58;537.90;2406.40
16491;DHT22;8356;51.214;3.270;2022-08-19T01:11:25;538.00;2406.40
16491;DHT22;8356;51.214;3.270;2022-08-19T01:13:52;512.90;2380.80
16491;DHT22;8356;51.214;3.270;2022-08-19T01:16:20;538.00;2406.40
16491;DHT22;8356;51.214;3.270;2022-08-19T01:18:47;537.90;2406.40
16491;DHT22;8356;51.214;3.270;2022-08-19T01:23:49;537.80;2406.40
16491;DHT22;8356;51.214;3.270;2022-08-19T01:26:18;537.80;2406.40
16491;DHT22;8356;51.214;3.270;2022-08-19T01:28:46;537.90;2406.40
16491;DHT22;8356;51.214;3.270;2022-08-19T01:31:15;537.90;2406.40
16491;DHT22;8356;51.214;3.270;2022-08-19T01:33:41;537.90;2406.40
16491;DHT22;8356;51.214;3.270;2022-08-19T01:36:12;537.90;2406.40
16491;DHT22;8356;51.214;3.270;2022-08-19T01:38:41;537.90;2406.40
16491;DHT22;8356;51.214;3.270;2022-08-19T01:41:09;537.80;2406.40
16491;DHT22;8356;51.214;3.270;2022-08-19T01:43:35;537.70;2406.40
16491;DHT22;8356;51.214;3.270;2022-08-19T01:46:02;538.20;2406.40
16491;DHT22;8356;51.214;3.270;2022-08-19T01:48:33;537.90;2406.40
16491;DHT22;8356;51.214;3.270;2022-08-19T01:50:59;512.90;2380.80
16491;DHT22;8356;51.214;3.270;2022-08-19T01:53:25;537.90;2406.40
16491;DHT22;8356;51.214;3.270;2022-08-19T01:55:50;537.70;2406.40
16491;DHT22;8356;51.214;3.270;2022-08-19T01:58:19;537.80;2406.40
16491;DHT22;8356;51.214;3.270;2022-08-19T02:00:46;537.70;2406.40
16491;DHT22;8356;51.214;3.270;2022-08-19T02:03:13;537.60;2406.40
16491;DHT22;8356;51.214;3.270;2022-08-19T02:05:40;537.60;2406.40
16491;DHT22;8356;51.214;3.270;2022-08-19T02:08:06;537.70;2406.40
16491;DHT22;8356;51.214;3.270;2022-08-19T02:10:32;537.70;2406.40
16491;DHT22;8356;51.214;3.270;2022-08-19T02:12:58;537.70;2406.40
16491;DHT22;8356;51.214;3.270;2022-08-19T02:15:24;512.90;2380.80
16491;DHT22;8356;51.214;3.270;2022-08-19T02:17:51;512.80;2380.80
16491;DHT22;8356;51.214;3.270;2022-08-19T02:20:17;512.80;2380.80
16491;DHT22;8356;51.214;3.270;2022-08-19T02:22:43;512.80;2380.80
16491;DHT22;8356;51.214;3.270;2022-08-19T02:25:10;537.60;2406.40
16491;DHT22;8356;51.214;3.270;2022-08-19T02:27:37;537.60;2406.40
16491;DHT22;8356;51.214;3.270;2022-08-19T02:30:04;537.70;2406.40
16491;DHT22;8356;51.214;3.270;2022-08-19T02:32:30;537.70;2406.40
16491;DHT22;8356;51.214;3.270;2022-08-19T02:34:56;537.60;2406.40
16491;DHT22;8356;51.214;3.270;2022-08-19T02:37:21;537.70;2406.40
16491;DHT22;8356;51.214;3.270;2022-08-19T02:40:06;537.80;2406.40
16491;DHT22;8356;51.214;3.270;2022-08-19T02:42:32;537.70;2406.40
16491;DHT22;8356;51.214;3.270;2022-08-19T02:44:58;537.70;2406.40
16491;DHT22;8356;51.214;3.270;2022-08-19T02:47:23;537.70;2406.40
16491;DHT22;8356;51.214;3.270;2022-08-19T02:49:49;537.60;2406.40
16491;DHT22;8356;51.214;3.270;2022-08-19T02:52:15;537.60;2406.40
16491;DHT22;8356;51.214;3.270;2022-08-19T02:54:41;512.60;2380.80
16491;DHT22;8356;51.214;3.270;2022-08-19T02:57:06;537.60;2406.40
16491;DHT22;8356;51.214;3.270;2022-08-19T02:59:33;537.70;2406.40
16491;DHT22;8356;51.214;3.270;2022-08-19T03:01:58;537.60;2406.40
16491;DHT22;8356;51.214;3.270;2022-08-19T03:04:24;537.60;2406.40
16491;DHT22;8356;51.214;3.270;2022-08-19T03:06:50;512.90;2380.80
16491;DHT22;8356;51.214;3.270;2022-08-19T03:09:18;512.90;2380.80
16491;DHT22;8356;51.214;3.270;2022-08-19T03:11:44;512.80;2380.80
16491;DHT22;8356;51.214;3.270;2022-08-19T03:14:10;512.80;2380.80
16491;DHT22;8356;51.214;3.270;2022-08-19T03:16:48;512.90;2380.80
16491;DHT22;8356;51.214;3.270;2022-08-19T03:19:17;537.60;2406.40
16491;DHT22;8356;51.214;3.270;2022-08-19T03:21:43;537.60;2406.40
16491;DHT22;8356;51.214;3.270;2022-08-19T03:24:13;537.60;2406.40
16491;DHT22;8356;51.214;3.270;2022-08-19T03:26:40;537.60;2406.40
16491;DHT22;8356;51.214;3.270;2022-08-19T03:29:07;537.60;2406.40
16491;DHT22;8356;51.214;3.270;2022-08-19T03:31:34;512.90;2380.80
16491;DHT22;8356;51.214;3.270;2022-08-19T03:33:59;512.80;2380.80
16491;DHT22;8356;51.214;3.270;2022-08-19T03:36:26;512.80;2380.80
16491;DHT22;8356;51.214;3.270;2022-08-19T03:38:55;512.90;2380.80
16491;DHT22;8356;51.214;3.270;2022-08-19T03:41:33;512.90;2380.80
16491;DHT22;8356;51.214;3.270;2022-08-19T03:44:02;512.80;2380.80
16491;DHT22;8356;51.214;3.270;2022-08-19T03:46:31;512.80;2380.80
16491;DHT22;8356;51.214;3.270;2022-08-19T03:48:58;512.80;2380.80
16491;DHT22;8356;51.214;3.270;2022-08-19T03:51:30;512.80;2380.80
16491;DHT22;8356;51.214;3.270;2022-08-19T03:53:58;512.80;2380.80
16491;DHT22;8356;51.214;3.270;2022-08-19T03:56:25;512.90;2380.80
16491;DHT22;8356;51.214;3.270;2022-08-19T03:58:52;512.90;2380.80
16491;DHT22;8356;51.214;3.270;2022-08-19T04:01:21;512.80;2380.80
16491;DHT22;8356;51.214;3.270;2022-08-19T04:03:48;512.80;2380.80
16491;DHT22;8356;51.214;3.270;2022-08-19T04:06:17;512.60;2380.80
16491;DHT22;8356;51.214;3.270;2022-08-19T04:08:44;512.60;2380.80
16491;DHT22;8356;51.214;3.270;2022-08-19T04:11:13;512.60;2380.80
16491;DHT22;8356;51.214;3.270;2022-08-19T04:13:39;512.60;2380.80
16491;DHT22;8356;51.214;3.270;2022-08-19T04:16:06;512.60;2380.80
16491;DHT22;8356;51.214;3.270;2022-08-19T04:18:33;512.60;2380.80
16491;DHT22;8356;51.214;3.270;2022-08-19T04:20:59;512.40;2380.80
16491;DHT22;8356;51.214;3.270;2022-08-19T04:23:26;512.80;2380.80
16491;DHT22;8356;51.214;3.270;2022-08-19T04:25:54;512.80;2380.80
16491;DHT22;8356;51.214;3.270;2022-08-19T04:28:20;537.90;2406.40
16491;DHT22;8356;51.214;3.270;2022-08-19T04:30:49;512.70;2380.80
16491;DHT22;8356;51.214;3.270;2022-08-19T04:33:17;512.60;2380.80
16491;DHT22;8356;51.214;3.270;2022-08-19T04:35:47;512.60;2380.80
16491;DHT22;8356;51.214;3.270;2022-08-19T04:38:15;512.70;2380.80
16491;DHT22;8356;51.214;3.270;2022-08-19T04:40:43;512.20;2380.80
16491;DHT22;8356;51.214;3.270;2022-08-19T04:43:27;512.60;2380.80
16491;DHT22;8356;51.214;3.270;2022-08-19T04:45:53;512.60;2380.80
16491;DHT22;8356;51.214;3.270;2022-08-19T04:48:19;512.80;2380.80
16491;DHT22;8356;51.214;3.270;2022-08-19T04:50:52;512.80;2380.80
16491;DHT22;8356;51.214;3.270;2022-08-19T04:53:27;512.80;2380.80
16491;DHT22;8356;51.214;3.270;2022-08-19T04:55:55;512.80;2380.80
16491;DHT22;8356;51.214;3.270;2022-08-19T04:58:21;538.00;2406.40
16491;DHT22;8356;51.214;3.270;2022-08-19T05:00:47;512.90;2380.80
16491;DHT22;8356;51.214;3.270;2022-08-19T05:03:13;537.60;2406.40
16491;DHT22;8356;51.214;3.270;2022-08-19T05:05:41;537.60;2406.40
16491;DHT22;8356;51.214;3.270;2022-08-19T05:08:07;537.70;2406.40
16491;DHT22;8356;51.214;3.270;2022-08-19T05:10:36;537.70;2406.40
16491;DHT22;8356;51.214;3.270;2022-08-19T05:13:02;537.70;2406.40
16491;DHT22;8356;51.214;3.270;2022-08-19T05:15:28;537.70;2406.40
16491;DHT22;8356;51.214;3.270;2022-08-19T05:17:53;537.80;2406.40
16491;DHT22;8356;51.214;3.270;2022-08-19T05:20:38;537.80;2406.40
16491;DHT22;8356;51.214;3.270;2022-08-19T05:23:23;537.90;2406.40
16491;DHT22;8356;51.214;3.270;2022-08-19T05:25:50;538.00;2406.40
16491;DHT22;8356;51.214;3.270;2022-08-19T05:28:16;538.00;2406.40
16491;DHT22;8356;51.214;3.270;2022-08-19T05:30:41;538.10;2406.40
16491;DHT22;8356;51.214;3.270;2022-08-19T05:33:10;538.00;2406.40
16491;DHT22;8356;51.214;3.270;2022-08-19T05:35:38;538.10;2406.40
16491;DHT22;8356;51.214;3.270;2022-08-19T05:38:05;538.10;2406.40
16491;DHT22;8356;51.214;3.270;2022-08-19T05:40:34;538.10;2406.40
16491;DHT22;8356;51.214;3.270;2022-08-19T05:43:02;538.10;2406.40
16491;DHT22;8356;51.214;3.270;2022-08-19T05:45:28;538.20;2406.40
16491;DHT22;8356;51.214;3.270;2022-08-19T05:47:53;538.20;2406.40
16491;DHT22;8356;51.214;3.270;2022-08-19T05:50:19;538.30;2406.40
16491;DHT22;8356;51.214;3.270;2022-08-19T05:52:45;538.30;2406.40
16491;DHT22;8356;51.214;3.270;2022-08-19T05:55:11;538.30;2406.40
16491;DHT22;8356;51.214;3.270;2022-08-19T05:57:37;563.20;2432.00
16491;DHT22;8356;51.214;3.270;2022-08-19T06:00:05;538.30;2406.40
16491;DHT22;8356;51.214;3.270;2022-08-19T06:02:35;538.40;2406.40
16491;DHT22;8356;51.214;3.270;2022-08-19T06:05:02;538.50;2406.40
16491;DHT22;8356;51.214;3.270;2022-08-19T06:07:28;563.30;2432.00
16491;DHT22;8356;51.214;3.270;2022-08-19T06:09:55;563.40;2432.00
16491;DHT22;8356;51.214;3.270;2022-08-19T06:12:20;563.50;2432.00
16491;DHT22;8356;51.214;3.270;2022-08-19T06:14:56;563.50;2432.00
16491;DHT22;8356;51.214;3.270;2022-08-19T06:17:21;563.60;2432.00
16491;DHT22;8356;51.214;3.270;2022-08-19T06:19:51;563.60;2432.00
16491;DHT22;8356;51.214;3.270;2022-08-19T06:22:17;563.60;2432.00
16491;DHT22;8356;51.214;3.270;2022-08-19T06:24:42;563.60;2432.00
16491;DHT22;8356;51.214;3.270;2022-08-19T06:27:08;563.60;2432.00
16491;DHT22;8356;51.214;3.270;2022-08-19T06:29:34;563.60;2432.00
16491;DHT22;8356;51.214;3.270;2022-08-19T06:32:01;563.60;2432.00
16491;DHT22;8356;51.214;3.270;2022-08-19T06:34:30;563.60;2432.00
16491;DHT22;8356;51.214;3.270;2022-08-19T06:36:58;563.50;2432.00
16491;DHT22;8356;51.214;3.270;2022-08-19T06:39:29;563.60;2432.00
16491;DHT22;8356;51.214;3.270;2022-08-19T06:41:58;563.60;2432.00
16491;DHT22;8356;51.214;3.270;2022-08-19T06:44:26;563.60;2432.00
16491;DHT22;8356;51.214;3.270;2022-08-19T06:46:54;563.60;2432.00
16491;DHT22;8356;51.214;3.270;2022-08-19T06:49:20;563.60;2432.00
16491;DHT22;8356;51.214;3.270;2022-08-19T06:51:47;563.70;2432.00
16491;DHT22;8356;51.214;3.270;2022-08-19T06:54:14;563.70;2432.00
16491;DHT22;8356;51.214;3.270;2022-08-19T06:56:39;563.80;2432.00
16491;DHT22;8356;51.214;3.270;2022-08-19T06:59:13;563.80;2432.00
16491;DHT22;8356;51.214;3.270;2022-08-19T07:01:48;563.80;2432.00
16491;DHT22;8356;51.214;3.270;2022-08-19T07:04:17;563.80;2432.00
16491;DHT22;8356;51.214;3.270;2022-08-19T07:06:43;563.90;2432.00
16491;DHT22;8356;51.214;3.270;2022-08-19T07:09:13;563.90;2432.00
16491;DHT22;8356;51.214;3.270;2022-08-19T07:11:48;563.90;2432.00
16491;DHT22;8356;51.214;3.270;2022-08-19T07:14:16;563.80;2432.00
16491;DHT22;8356;51.214;3.270;2022-08-19T07:16:44;563.90;2432.00
16491;DHT22;8356;51.214;3.270;2022-08-19T07:19:13;563.90;2432.00
16491;DHT22;8356;51.214;3.270;2022-08-19T07:21:40;589.10;2432.00
16491;DHT22;8356;51.214;3.270;2022-08-19T07:24:06;563.90;2432.00
16491;DHT22;8356;51.214;3.270;2022-08-19T07:26:35;564.00;2432.00
16491;DHT22;8356;51.214;3.270;2022-08-19T07:29:04;564.00;2432.00
16491;DHT22;8356;51.214;3.270;2022-08-19T07:31:30;563.90;2432.00
16491;DHT22;8356;51.214;3.270;2022-08-19T07:33:56;564.00;2432.00
16491;DHT22;8356;51.214;3.270;2022-08-19T07:36:25;564.00;2432.00
16491;DHT22;8356;51.214;3.270;2022-08-19T07:38:54;588.80;2432.00
16491;DHT22;8356;51.214;3.270;2022-08-19T07:41:22;588.80;2432.00
16491;DHT22;8356;51.214;3.270;2022-08-19T07:43:49;588.80;2432.00
16491;DHT22;8356;51.214;3.270;2022-08-19T07:46:15;588.80;2432.00
16491;DHT22;8356;51.214;3.270;2022-08-19T07:48:43;588.80;2432.00
16491;DHT22;8356;51.214;3.270;2022-08-19T07:51:13;588.80;2432.00
16491;DHT22;8356;51.214;3.270;2022-08-19T07:53:39;588.80;2432.00
16491;DHT22;8356;51.214;3.270;2022-08-19T07:56:05;588.80;2432.00
16491;DHT22;8356;51.214;3.270;2022-08-19T07:58:34;588.80;2432.00
16491;DHT22;8356;51.214;3.270;2022-08-19T08:01:01;588.90;2432.00
16491;DHT22;8356;51.214;3.270;2022-08-19T08:03:27;588.80;2432.00
16491;DHT22;8356;51.214;3.270;2022-08-19T08:06:13;589.00;2432.00
16491;DHT22;8356;51.214;3.270;2022-08-19T08:08:59;589.00;2432.00
16491;DHT22;8356;51.214;3.270;2022-08-19T08:11:43;589.00;2432.00
16491;DHT22;8356;51.214;3.270;2022-08-19T08:14:20;589.00;2432.00
16491;DHT22;8356;51.214;3.270;2022-08-19T08:16:47;589.10;2432.00
16491;DHT22;8356;51.214;3.270;2022-08-19T08:19:16;589.20;2432.00
16491;DHT22;8356;51.214;3.270;2022-08-19T08:21:42;589.20;2432.00
16491;DHT22;8356;51.214;3.270;2022-08-19T08:24:08;589.30;2432.00
16491;DHT22;8356;51.214;3.270;2022-08-19T08:26:34;589.30;2432.00
16491;DHT22;8356;51.214;3.270;2022-08-19T08:29:00;589.30;2432.00
16491;DHT22;8356;51.214;3.270;2022-08-19T08:31:25;589.30;2432.00
16491;DHT22;8356;51.214;3.270;2022-08-19T08:33:51;589.30;2432.00
16491;DHT22;8356;51.214;3.270;2022-08-19T08:36:17;589.30;2432.00
16491;DHT22;8356;51.214;3.270;2022-08-19T08:38:44;589.40;2432.00
16491;DHT22;8356;51.214;3.270;2022-08-19T08:44:28;589.60;2432.00
16491;DHT22;8356;51.214;3.270;2022-08-19T08:47:02;589.70;2432.00
16491;DHT22;8356;51.214;3.270;2022-08-19T08:50:04;614.40;2432.00
16491;DHT22;8356;51.214;3.270;2022-08-19T08:52:34;614.50;2432.00
16491;DHT22;8356;51.214;3.270;2022-08-19T08:55:07;614.60;2432.00
16491;DHT22;8356;51.214;3.270;2022-08-19T09:00:27;614.60;2432.00
16491;DHT22;8356;51.214;3.270;2022-08-19T09:02:55;614.60;2432.00
16491;DHT22;8356;51.214;3.270;2022-08-19T09:05:23;614.60;2432.00
16491;DHT22;8356;51.214;3.270;2022-08-19T09:08:04;614.70;2432.00
16491;DHT22;8356;51.214;3.270;2022-08-19T09:10:44;614.80;2432.00
16491;DHT22;8356;51.214;3.270;2022-08-19T09:16:10;614.70;2432.00
16491;DHT22;8356;51.214;3.270;2022-08-19T09:18:51;614.80;2432.00
16491;DHT22;8356;51.214;3.270;2022-08-19T09:21:21;614.90;2432.00
16491;DHT22;8356;51.214;3.270;2022-08-19T09:23:51;615.00;2432.00
16491;DHT22;8356;51.214;3.270;2022-08-19T09:26:21;615.00;2432.00
16491;DHT22;8356;51.214;3.270;2022-08-19T09:28:48;615.00;2432.00
16491;DHT22;8356;51.214;3.270;2022-08-19T09:31:17;615.00;2432.00
16491;DHT22;8356;51.214;3.270;2022-08-19T09:33:43;614.80;2432.00
16491;DHT22;8356;51.214;3.270;2022-08-19T09:36:11;614.80;2432.00
16491;DHT22;8356;51.214;3.270;2022-08-19T09:38:37;614.80;2432.00
16491;DHT22;8356;51.214;3.270;2022-08-19T09:41:17;614.80;2432.00
16491;DHT22;8356;51.214;3.270;2022-08-19T09:43:48;614.90;2432.00
16491;DHT22;8356;51.214;3.270;2022-08-19T09:46:18;614.90;2432.00
16491;DHT22;8356;51.214;3.270;2022-08-19T09:48:46;614.90;2432.00
16491;DHT22;8356;51.214;3.270;2022-08-19T09:51:16;614.90;2432.00
16491;DHT22;8356;51.214;3.270;2022-08-19T09:53:44;614.90;2432.00
16491;DHT22;8356;51.214;3.270;2022-08-19T09:56:10;614.90;2432.00
16491;DHT22;8356;51.214;3.270;2022-08-19T09:58:37;615.00;2432.00
16491;DHT22;8356;51.214;3.270;2022-08-19T10:01:04;640.20;2432.00
16491;DHT22;8356;51.214;3.270;2022-08-19T10:03:32;615.10;2432.00
16491;DHT22;8356;51.214;3.270;2022-08-19T10:06:01;614.90;2432.00
16491;DHT22;8356;51.214;3.270;2022-08-19T10:08:32;614.80;2432.00
16491;DHT22;8356;51.214;3.270;2022-08-19T10:10:59;614.80;2432.00
16491;DHT22;8356;51.214;3.270;2022-08-19T10:13:28;614.80;2432.00
16491;DHT22;8356;51.214;3.270;2022-08-19T10:15:56;614.70;2432.00
16491;DHT22;8356;51.214;3.270;2022-08-19T10:18:24;614.60;2432.00
16491;DHT22;8356;51.214;3.270;2022-08-19T10:20:50;614.60;2432.00
16491;DHT22;8356;51.214;3.270;2022-08-19T10:23:19;614.70;2432.00
16491;DHT22;8356;51.214;3.270;2022-08-19T10:25:45;614.70;2432.00
16491;DHT22;8356;51.214;3.270;2022-08-19T10:28:11;614.80;2432.00
16491;DHT22;8356;51.214;3.270;2022-08-19T10:30:39;614.80;2432.00
16491;DHT22;8356;51.214;3.270;2022-08-19T10:33:06;614.90;2432.00
16491;DHT22;8356;51.214;3.270;2022-08-19T10:35:32;615.00;2432.00
16491;DHT22;8356;51.214;3.270;2022-08-19T10:37:58;615.10;2432.00
16491;DHT22;8356;51.214;3.270;2022-08-19T10:40:26;615.20;2432.00
16491;DHT22;8356;51.214;3.270;2022-08-19T10:42:52;615.30;2432.00
16491;DHT22;8356;51.214;3.270;2022-08-19T10:45:18;615.30;2432.00
16491;DHT22;8356;51.214;3.270;2022-08-19T10:47:44;615.30;2432.00
16491;DHT22;8356;51.214;3.270;2022-08-19T10:50:09;615.30;2432.00
16491;DHT22;8356;51.214;3.270;2022-08-19T10:52:53;615.30;2432.00
16491;DHT22;8356;51.214;3.270;2022-08-19T10:55:23;640.00;2432.00
16491;DHT22;8356;51.214;3.270;2022-08-19T10:58:17;640.20;2432.00
16491;DHT22;8356;51.214;3.270;2022-08-19T11:00:43;640.60;2432.00
16491;DHT22;8356;51.214;3.270;2022-08-19T11:03:15;640.90;2432.00
16491;DHT22;8356;51.214;3.270;2022-08-19T11:05:41;665.80;2432.00
16491;DHT22;8356;51.214;3.270;2022-08-19T11:08:08;665.80;2432.00
16491;DHT22;8356;51.214;3.270;2022-08-19T11:10:37;665.70;2432.00
16491;DHT22;8356;51.214;3.270;2022-08-19T11:13:06;665.60;2432.00
16491;DHT22;8356;51.214;3.270;2022-08-19T11:15:31;640.90;2432.00
16491;DHT22;8356;51.214;3.270;2022-08-19T11:17:58;640.90;2432.00
16491;DHT22;8356;51.214;3.270;2022-08-19T11:20:24;640.90;2432.00
16491;DHT22;8356;51.214;3.270;2022-08-19T11:22:52;665.60;2432.00
16491;DHT22;8356;51.214;3.270;2022-08-19T11:25:19;665.80;2432.00
16491;DHT22;8356;51.214;3.270;2022-08-19T11:27:44;665.90;2432.00
16491;DHT22;8356;51.214;3.270;2022-08-19T11:30:13;666.00;2432.00
16491;DHT22;8356;51.214;3.270;2022-08-19T11:32:42;665.90;2432.00
16491;DHT22;8356;51.214;3.270;2022-08-19T11:35:08;665.80;2432.00
16491;DHT22;8356;51.214;3.270;2022-08-19T11:37:33;665.70;2432.00
16491;DHT22;8356;51.214;3.270;2022-08-19T11:40:04;665.60;2432.00
16491;DHT22;8356;51.214;3.270;2022-08-19T11:42:30;640.90;2432.00
16491;DHT22;8356;51.214;3.270;2022-08-19T11:45:14;640.90;2432.00
16491;DHT22;8356;51.214;3.270;2022-08-19T11:47:39;640.90;2432.00
16491;DHT22;8356;51.214;3.270;2022-08-19T11:50:05;640.80;2432.00
16491;DHT22;8356;51.214;3.270;2022-08-19T11:52:31;640.80;2432.00
16491;DHT22;8356;51.214;3.270;2022-08-19T11:54:56;640.80;2432.00
16491;DHT22;8356;51.214;3.270;2022-08-19T11:57:22;640.70;2432.00
16491;DHT22;8356;51.214;3.270;2022-08-19T11:59:49;640.60;2432.00
16491;DHT22;8356;51.214;3.270;2022-08-19T12:02:15;640.30;2432.00
16491;DHT22;8356;51.214;3.270;2022-08-19T12:04:41;615.30;2432.00
16491;DHT22;8356;51.214;3.270;2022-08-19T12:07:06;615.10;2432.00
16491;DHT22;8356;51.214;3.270;2022-08-19T12:09:32;614.80;2432.00
16491;DHT22;8356;51.214;3.270;2022-08-19T12:12:00;614.60;2432.00
16491;DHT22;8356;51.214;3.270;2022-08-19T12:14:27;614.50;2432.00
16491;DHT22;8356;51.214;3.270;2022-08-19T12:16:55;614.40;2432.00
16491;DHT22;8356;51.214;3.270;2022-08-19T12:19:21;614.40;2432.00
16491;DHT22;8356;51.214;3.270;2022-08-19T12:21:46;614.50;2432.00
16491;DHT22;8356;51.214;3.270;2022-08-19T12:24:13;614.60;2432.00
16491;DHT22;8356;51.214;3.270;2022-08-19T12:26:38;614.60;2432.00
16491;DHT22;8356;51.214;3.270;2022-08-19T12:29:04;614.60;2432.00
16491;DHT22;8356;51.214;3.270;2022-08-19T12:31:30;614.60;2432.00
16491;DHT22;8356;51.214;3.270;2022-08-19T12:33:56;614.70;2432.00
16491;DHT22;8356;51.214;3.270;2022-08-19T12:36:22;614.80;2432.00
16491;DHT22;8356;51.214;3.270;2022-08-19T12:38:49;615.00;2432.00
16491;DHT22;8356;51.214;3.270;2022-08-19T12:41:16;615.20;2432.00
16491;DHT22;8356;51.214;3.270;2022-08-19T12:43:43;640.50;2432.00
16491;DHT22;8356;51.214;3.270;2022-08-19T12:46:10;615.20;2432.00
16491;DHT22;8356;51.214;3.270;2022-08-19T12:48:36;615.30;2432.00
16491;DHT22;8356;51.214;3.270;2022-08-19T12:51:11;640.20;2432.00
16491;DHT22;8356;51.214;3.270;2022-08-19T12:53:37;640.10;2432.00
16491;DHT22;8356;51.214;3.270;2022-08-19T12:56:03;640.00;2432.00
16491;DHT22;8356;51.214;3.270;2022-08-19T12:58:30;640.30;2432.00
16491;DHT22;8356;51.214;3.270;2022-08-19T13:00:57;640.00;2432.00
16491;DHT22;8356;51.214;3.270;2022-08-19T13:03:22;640.00;2432.00
16491;DHT22;8356;51.214;3.270;2022-08-19T13:05:54;640.10;2432.00
16491;DHT22;8356;51.214;3.270;2022-08-19T13:08:19;640.10;2432.00
16491;DHT22;8356;51.214;3.270;2022-08-19T13:10:45;640.10;2432.00
16491;DHT22;8356;51.214;3.270;2022-08-19T13:13:12;640.10;2432.00
16491;DHT22;8356;51.214;3.270;2022-08-19T13:15:39;640.30;2432.00
16491;DHT22;8356;51.214;3.270;2022-08-19T13:18:06;640.60;2432.00
16491;DHT22;8356;51.214;3.270;2022-08-19T13:20:32;640.80;2432.00
16491;DHT22;8356;51.214;3.270;2022-08-19T13:22:58;640.90;2432.00
16491;DHT22;8356;51.214;3.270;2022-08-19T13:25:24;665.80;2432.00
16491;DHT22;8356;51.214;3.270;2022-08-19T13:27:50;665.90;2432.00
16491;DHT22;8356;51.214;3.270;2022-08-19T13:30:17;665.80;2432.00
16491;DHT22;8356;51.214;3.270;2022-08-19T13:33:03;640.90;2432.00
16491;DHT22;8356;51.214;3.270;2022-08-19T13:35:44;640.70;2432.00
16491;DHT22;8356;51.214;3.270;2022-08-19T13:38:11;640.70;2432.00
16491;DHT22;8356;51.214;3.270;2022-08-19T13:40:39;640.70;2432.00
16491;DHT22;8356;51.214;3.270;2022-08-19T13:43:05;640.90;2432.00
16491;DHT22;8356;51.214;3.270;2022-08-19T13:45:32;665.70;2432.00
16491;DHT22;8356;51.214;3.270;2022-08-19T13:48:03;666.00;2432.00
16491;DHT22;8356;51.214;3.270;2022-08-19T13:50:41;666.00;2432.00
16491;DHT22;8356;51.214;3.270;2022-08-19T13:53:08;665.80;2432.00
16491;DHT22;8356;51.214;3.270;2022-08-19T13:55:38;640.90;2432.00
16491;DHT22;8356;51.214;3.270;2022-08-19T13:58:05;640.60;2432.00
16491;DHT22;8356;51.214;3.270;2022-08-19T14:00:39;640.40;2432.00
16491;DHT22;8356;51.214;3.270;2022-08-19T14:03:05;640.50;2432.00
16491;DHT22;8356;51.214;3.270;2022-08-19T14:05:32;640.70;2432.00
16491;DHT22;8356;51.214;3.270;2022-08-19T14:07:58;640.90;2432.00
16491;DHT22;8356;51.214;3.270;2022-08-19T14:10:25;665.60;2432.00
16491;DHT22;8356;51.214;3.270;2022-08-19T14:12:55;640.40;2432.00
16491;DHT22;8356;51.214;3.270;2022-08-19T14:15:21;665.90;2432.00
16491;DHT22;8356;51.214;3.270;2022-08-19T14:17:48;666.00;2432.00
16491;DHT22;8356;51.214;3.270;2022-08-19T14:20:14;665.90;2432.00
16491;DHT22;8356;51.214;3.270;2022-08-19T14:22:42;665.80;2432.00
16491;DHT22;8356;51.214;3.270;2022-08-19T14:25:10;665.60;2432.00
16491;DHT22;8356;51.214;3.270;2022-08-19T14:27:37;665.70;2432.00
16491;DHT22;8356;51.214;3.270;2022-08-19T14:30:08;640.90;2432.00
16491;DHT22;8356;51.214;3.270;2022-08-19T14:32:34;640.70;2432.00
16491;DHT22;8356;51.214;3.270;2022-08-19T14:35:01;640.70;2432.00
16491;DHT22;8356;51.214;3.270;2022-08-19T14:37:27;640.70;2432.00
16491;DHT22;8356;51.214;3.270;2022-08-19T14:39:52;640.60;2432.00
16491;DHT22;8356;51.214;3.270;2022-08-19T14:42:18;640.50;2432.00
16491;DHT22;8356;51.214;3.270;2022-08-19T14:44:44;640.50;2432.00
16491;DHT22;8356;51.214;3.270;2022-08-19T14:47:10;640.60;2432.00
16491;DHT22;8356;51.214;3.270;2022-08-19T14:49:36;640.50;2432.00
16491;DHT22;8356;51.214;3.270;2022-08-19T14:52:02;640.50;2432.00
16491;DHT22;8356;51.214;3.270;2022-08-19T14:54:28;640.40;2432.00
16491;DHT22;8356;51.214;3.270;2022-08-19T14:56:54;640.30;2432.00
16491;DHT22;8356;51.214;3.270;2022-08-19T14:59:19;640.30;2432.00
16491;DHT22;8356;51.214;3.270;2022-08-19T15:01:45;640.30;2432.00
16491;DHT22;8356;51.214;3.270;2022-08-19T15:04:11;640.40;2432.00
16491;DHT22;8356;51.214;3.270;2022-08-19T15:06:36;640.50;2432.00
16491;DHT22;8356;51.214;3.270;2022-08-19T15:09:03;640.60;2432.00
16491;DHT22;8356;51.214;3.270;2022-08-19T15:11:29;640.60;2432.00
16491;DHT22;8356;51.214;3.270;2022-08-19T15:13:58;640.50;2432.00
16491;DHT22;8356;51.214;3.270;2022-08-19T15:16:26;640.90;2432.00
16491;DHT22;8356;51.214;3.270;2022-08-19T15:18:55;640.40;2432.00